Rijnsburg, Netherlands
Current Conditions -  °F | °C
As of 11:55 AM on Friday 19 Dec 2014 (Local Time) from EHAM Reporting Station
Broken Clouds Broken Clouds  
Wind Chill: 41°   Ceiling: 4500
Heat Index: 48°   Visibility: 6mi
Dew Point: 39°   Wind: 21mph
Humidity: 71%   Direction: 290°WNW
Pressure: 29.8"   Gusts: 32mph
Location:  52.19°N, 4.44°E
Report Text: EHAM 191055Z 29018G28KT 9999 BKN045 09/04 Q1009 NOSIG
Loading
Personal Weather Stations






























Interactive Weather Map New forecast layout! Learn more

10-Day Weather Forecast

Advertisements
Track Severe Weather on mobile